Time;durP1;ratioP1;P1;durP2;ratioP2;P2;SDS_P1;SDS_P2;PMS_P1;PMS_P2;Temp;Humidity;BMP_temperature;BMP_pressure;BME280_temperature;BME280_humidity;BME280_pressure;Samples;Min_cycle;Max_cycle;Signal;HPM_P1;HPM_P2
2022/05/23 00:00:58;;;;;;;9.10;4.20;;;;;;;;;;5045381;28;20219;-75
2022/05/23 00:03:27;;;;;;;9.13;4.73;;;;;;;;;;5045914;28;20203;-75
2022/05/23 00:05:55;;;;;;;7.17;4.03;;;;;;;;;;5045928;28;20264;-74
2022/05/23 00:08:23;;;;;;;11.83;4.27;;;;;;;;;;5046427;28;20229;-75
2022/05/23 00:10:50;;;;;;;6.17;4.10;;;;;;;;;;5042047;28;20224;-75
2022/05/23 00:13:17;;;;;;;7.50;4.03;;;;;;;;;;5045974;28;20234;-74
2022/05/23 00:15:45;;;;;;;9.60;3.83;;;;;;;;;;5048063;28;20265;-75
2022/05/23 00:18:13;;;;;;;6.20;4.07;;;;;;;;;;5041137;28;20235;-76
2022/05/23 00:20:40;;;;;;;13.13;3.93;;;;;;;;;;5045368;28;20226;-75
2022/05/23 00:23:08;;;;;;;7.63;4.53;;;;;;;;;;5046880;28;20206;-75
2022/05/23 00:25:35;;;;;;;8.30;4.47;;;;;;;;;;5046116;28;20296;-75
2022/05/23 00:28:02;;;;;;;8.50;4.83;;;;;;;;;;5043578;28;20298;-75
2022/05/23 00:30:30;;;;;;;9.40;4.30;;;;;;;;;;5044624;28;20215;-75
2022/05/23 00:35:45;;;;;;;8.73;4.40;;;;;;;;;;5042771;28;20205;-76
2022/05/23 00:38:12;;;;;;;7.90;4.17;;;;;;;;;;5044127;28;20203;-76
2022/05/23 00:40:42;;;;;;;6.27;4.27;;;;;;;;;;5044055;28;20625;-76
2022/05/23 00:43:13;;;;;;;9.80;4.30;;;;;;;;;;5042297;28;20245;-76
2022/05/23 00:45:40;;;;;;;6.97;4.20;;;;;;;;;;5044134;28;20198;-75
2022/05/23 00:48:08;;;;;;;6.70;4.13;;;;;;;;;;5044427;28;20223;-75
2022/05/23 00:50:36;;;;;;;6.60;4.30;;;;;;;;;;5041440;28;20657;-75
2022/05/23 00:53:05;;;;;;;6.93;4.37;;;;;;;;;;5043599;28;20203;-75
2022/05/23 00:55:33;;;;;;;11.03;4.57;;;;;;;;;;5042137;28;20230;-76
2022/05/23 00:58:05;;;;;;;8.87;4.47;;;;;;;;;;5042316;28;20746;-75
2022/05/23 01:00:32;;;;;;;8.60;4.37;;;;;;;;;;5044374;28;20461;-75
2022/05/23 01:03:02;;;;;;;8.43;4.57;;;;;;;;;;5043225;28;20215;-76
2022/05/23 01:05:32;;;;;;;7.20;4.23;;;;;;;;;;5043881;28;20290;-76
2022/05/23 01:07:59;;;;;;;7.23;4.17;;;;;;;;;;5042994;28;20281;-76
2022/05/23 01:10:30;;;;;;;8.63;4.23;;;;;;;;;;5044326;28;20207;-76
2022/05/23 01:12:57;;;;;;;8.33;3.80;;;;;;;;;;5042301;28;20203;-76
2022/05/23 01:15:25;;;;;;;10.73;4.30;;;;;;;;;;5044969;28;20666;-75
2022/05/23 01:17:52;;;;;;;8.13;4.67;;;;;;;;;;5044691;28;20287;-75
2022/05/23 01:20:20;;;;;;;6.97;4.07;;;;;;;;;;5043489;28;20312;-75
2022/05/23 01:22:51;;;;;;;6.93;4.10;;;;;;;;;;5043885;28;20223;-75
2022/05/23 01:25:25;;;;;;;8.63;4.33;;;;;;;;;;5042026;28;20290;-74
2022/05/23 01:27:53;;;;;;;7.07;4.23;;;;;;;;;;5042437;28;20235;-74
2022/05/23 01:30:21;;;;;;;7.07;4.40;;;;;;;;;;5042131;28;20310;-75
2022/05/23 01:32:48;;;;;;;5.83;4.33;;;;;;;;;;5043457;28;20637;-75
2022/05/23 01:35:15;;;;;;;8.10;4.50;;;;;;;;;;5045174;28;20234;-76
2022/05/23 01:37:43;;;;;;;10.83;5.03;;;;;;;;;;5044477;28;20288;-75
2022/05/23 01:40:11;;;;;;;8.90;4.80;;;;;;;;;;5046854;28;20238;-75
2022/05/23 01:42:40;;;;;;;10.83;4.70;;;;;;;;;;5044334;28;20231;-75
2022/05/23 01:45:08;;;;;;;9.40;4.70;;;;;;;;;;5043186;28;20220;-75
2022/05/23 01:47:35;;;;;;;10.50;4.73;;;;;;;;;;5043933;28;20281;-75
2022/05/23 01:50:02;;;;;;;8.07;5.00;;;;;;;;;;5045989;28;20301;-75
2022/05/23 01:52:29;;;;;;;9.03;4.40;;;;;;;;;;5045148;28;20231;-76
2022/05/23 01:54:57;;;;;;;9.30;4.13;;;;;;;;;;5044957;28;20669;-75
2022/05/23 01:57:24;;;;;;;7.63;4.30;;;;;;;;;;5045567;28;20199;-75
2022/05/23 02:02:38;;;;;;;7.93;4.53;;;;;;;;;;5043849;28;20250;-75
2022/05/23 02:05:06;;;;;;;12.00;4.70;;;;;;;;;;5043443;28;20232;-75
2022/05/23 02:07:33;;;;;;;8.57;4.97;;;;;;;;;;5042602;28;20231;-75
2022/05/23 02:10:00;;;;;;;7.13;4.63;;;;;;;;;;5044054;28;20241;-75
2022/05/23 02:12:28;;;;;;;5.90;4.33;;;;;;;;;;5045507;28;20272;-75
2022/05/23 02:14:57;;;;;;;9.33;4.57;;;;;;;;;;5045449;28;20200;-75
2022/05/23 02:17:24;;;;;;;9.77;4.47;;;;;;;;;;5046497;28;20238;-75
2022/05/23 02:19:51;;;;;;;8.73;4.50;;;;;;;;;;5043351;28;20210;-75
2022/05/23 02:22:18;;;;;;;6.17;4.37;;;;;;;;;;5045500;28;20313;-76
2022/05/23 02:24:45;;;;;;;9.30;4.50;;;;;;;;;;5043578;28;20200;-75
2022/05/23 02:27:13;;;;;;;6.30;4.13;;;;;;;;;;5041538;28;20694;-75
2022/05/23 02:29:40;;;;;;;10.43;4.70;;;;;;;;;;5044798;28;20227;-75
2022/05/23 02:32:10;;;;;;;8.77;4.47;;;;;;;;;;5046924;28;20239;-75
2022/05/23 02:34:37;;;;;;;6.77;4.13;;;;;;;;;;5046795;28;20692;-75
2022/05/23 02:37:05;;;;;;;11.63;4.50;;;;;;;;;;5049883;28;20230;-75
2022/05/23 02:39:32;;;;;;;7.53;4.87;;;;;;;;;;5049120;28;20203;-75
2022/05/23 02:41:59;;;;;;;7.40;4.63;;;;;;;;;;5048911;28;20223;-75
2022/05/23 02:44:26;;;;;;;8.93;4.67;;;;;;;;;;5046551;28;20334;-75
2022/05/23 02:46:54;;;;;;;13.03;4.60;;;;;;;;;;5045807;28;20286;-75
2022/05/23 02:49:23;;;;;;;7.77;4.70;;;;;;;;;;5047505;28;20862;-75
2022/05/23 02:51:50;;;;;;;7.00;4.57;;;;;;;;;;5048678;28;20302;-75
2022/05/23 02:54:17;;;;;;;9.33;4.73;;;;;;;;;;5047564;28;20209;-75
2022/05/23 02:56:44;;;;;;;7.63;4.40;;;;;;;;;;5049944;28;20226;-75
2022/05/23 02:59:11;;;;;;;13.57;5.10;;;;;;;;;;5048236;28;20496;-75
2022/05/23 03:03:01;;;;;;;10.87;5.00;;;;;;;;;;5048785;28;20717;-75
2022/05/23 03:04:26;;;;;;;8.23;4.80;;;;;;;;;;5047742;28;20625;-75
2022/05/23 03:06:53;;;;;;;11.17;4.87;;;;;;;;;;5047165;28;20261;-75
2022/05/23 03:09:21;;;;;;;11.57;4.80;;;;;;;;;;5047547;28;20640;-75
2022/05/23 03:11:48;;;;;;;9.30;4.83;;;;;;;;;;5049945;28;20231;-75
2022/05/23 03:14:15;;;;;;;7.83;4.70;;;;;;;;;;5049024;28;20207;-75
2022/05/23 03:16:43;;;;;;;9.53;5.07;;;;;;;;;;5048774;28;20210;-75
2022/05/23 03:19:10;;;;;;;8.87;4.90;;;;;;;;;;5048002;28;20211;-75
2022/05/23 03:27:08;;;;;;;11.13;4.43;;;;;;;;;;5046276;28;20214;-76
2022/05/23 03:29:35;;;;;;;7.03;4.90;;;;;;;;;;5045690;28;20227;-76
2022/05/23 03:32:02;;;;;;;10.70;4.90;;;;;;;;;;5047407;28;20280;-76
2022/05/23 03:34:30;;;;;;;9.37;5.00;;;;;;;;;;5045748;28;20207;-76
2022/05/23 03:36:58;;;;;;;10.90;4.77;;;;;;;;;;5047678;28;20299;-76
2022/05/23 03:39:25;;;;;;;9.80;4.53;;;;;;;;;;5044927;28;20206;-76
2022/05/23 03:41:53;;;;;;;9.47;5.03;;;;;;;;;;5044556;28;20219;-76
2022/05/23 03:44:20;;;;;;;8.20;5.07;;;;;;;;;;5045913;28;20206;-76
2022/05/23 03:46:48;;;;;;;6.13;4.50;;;;;;;;;;5043876;28;20217;-76
2022/05/23 03:49:15;;;;;;;8.13;4.77;;;;;;;;;;5050535;28;20254;-76
2022/05/23 03:51:42;;;;;;;8.93;5.13;;;;;;;;;;5048426;28;20225;-76
2022/05/23 03:54:11;;;;;;;7.93;4.70;;;;;;;;;;5046293;28;20215;-76
2022/05/23 03:56:38;;;;;;;11.23;5.00;;;;;;;;;;5045253;28;20259;-76
2022/05/23 03:59:05;;;;;;;7.33;4.50;;;;;;;;;;5045576;28;20291;-76
2022/05/23 04:01:33;;;;;;;7.70;4.67;;;;;;;;;;5046250;28;20219;-76
2022/05/23 04:04:01;;;;;;;9.63;4.90;;;;;;;;;;5045765;28;20206;-76
2022/05/23 04:06:28;;;;;;;8.37;4.63;;;;;;;;;;5048000;28;20212;-76
2022/05/23 04:08:55;;;;;;;7.63;4.77;;;;;;;;;;5047264;28;20223;-76
2022/05/23 04:11:24;;;;;;;11.53;4.70;;;;;;;;;;5045591;28;20310;-76
2022/05/23 04:13:51;;;;;;;11.03;5.20;;;;;;;;;;5047923;28;20682;-76
2022/05/23 04:16:18;;;;;;;9.03;5.00;;;;;;;;;;5047224;28;20203;-76
2022/05/23 04:18:45;;;;;;;10.03;4.97;;;;;;;;;;5048121;28;20253;-76
2022/05/23 04:21:12;;;;;;;14.47;4.60;;;;;;;;;;5044242;28;20310;-75
2022/05/23 04:23:40;;;;;;;9.73;5.90;;;;;;;;;;5046364;28;20212;-76
2022/05/23 04:26:08;;;;;;;14.37;4.80;;;;;;;;;;5046019;28;20289;-76
2022/05/23 04:28:39;;;;;;;11.20;4.60;;;;;;;;;;5045836;28;20687;-76
2022/05/23 04:31:06;;;;;;;9.23;4.80;;;;;;;;;;5042706;28;20318;-75
2022/05/23 04:36:18;;;;;;;8.03;4.83;;;;;;;;;;5045626;28;20210;-76
2022/05/23 04:38:45;;;;;;;9.97;4.83;;;;;;;;;;5044917;28;20550;-76
2022/05/23 04:41:13;;;;;;;10.50;4.83;;;;;;;;;;5045035;28;20226;-76
2022/05/23 04:43:41;;;;;;;9.97;5.30;;;;;;;;;;5045417;28;20211;-76
2022/05/23 04:46:09;;;;;;;12.77;5.30;;;;;;;;;;5042760;28;20199;-76
2022/05/23 04:51:21;;;;;;;10.07;4.90;;;;;;;;;;5039240;28;20218;-76
2022/05/23 04:53:53;;;;;;;12.53;4.63;;;;;;;;;;5047433;28;20234;-76
2022/05/23 04:56:20;;;;;;;9.33;4.63;;;;;;;;;;5046325;28;20199;-75
2022/05/23 04:58:48;;;;;;;9.17;4.87;;;;;;;;;;5049598;28;20219;-75
2022/05/23 05:01:16;;;;;;;9.73;5.10;;;;;;;;;;5042608;28;20309;-76
2022/05/23 05:03:43;;;;;;;8.90;4.93;;;;;;;;;;5044092;28;20217;-76
2022/05/23 05:06:10;;;;;;;9.80;4.97;;;;;;;;;;5047266;28;20217;-76
2022/05/23 05:08:37;;;;;;;11.80;4.87;;;;;;;;;;5045875;28;20226;-76
2022/05/23 05:11:05;;;;;;;14.97;5.20;;;;;;;;;;5045665;28;20310;-76
2022/05/23 05:13:34;;;;;;;9.00;5.33;;;;;;;;;;5044783;28;20317;-76
2022/05/23 05:16:03;;;;;;;25.37;6.27;;;;;;;;;;5045805;28;20214;-76
2022/05/23 05:18:31;;;;;;;16.83;5.00;;;;;;;;;;5045027;28;20214;-76
2022/05/23 05:20:58;;;;;;;8.90;4.73;;;;;;;;;;5041139;28;20303;-76
2022/05/23 05:23:26;;;;;;;9.57;4.40;;;;;;;;;;5041525;28;20688;-76
2022/05/23 05:25:53;;;;;;;12.70;4.83;;;;;;;;;;5044408;28;20214;-76
2022/05/23 05:28:21;;;;;;;7.70;4.70;;;;;;;;;;5044291;28;20207;-76
2022/05/23 05:30:51;;;;;;;8.03;4.57;;;;;;;;;;5044074;28;20301;-76
2022/05/23 05:33:20;;;;;;;9.23;5.17;;;;;;;;;;5045386;28;20691;-76
2022/05/23 05:35:50;;;;;;;7.80;5.00;;;;;;;;;;5046479;28;20709;-76
2022/05/23 05:38:19;;;;;;;12.00;4.93;;;;;;;;;;5044743;28;20249;-76
2022/05/23 05:40:47;;;;;;;11.23;5.10;;;;;;;;;;5044492;28;20204;-76
2022/05/23 05:43:18;;;;;;;11.40;5.03;;;;;;;;;;5044090;28;20199;-76
2022/05/23 05:45:46;;;;;;;10.30;5.40;;;;;;;;;;5043594;28;20678;-76
2022/05/23 05:48:14;;;;;;;8.40;4.90;;;;;;;;;;5043822;28;20199;-76
2022/05/23 05:50:43;;;;;;;8.50;4.73;;;;;;;;;;5044822;28;20229;-76
2022/05/23 05:53:12;;;;;;;12.27;4.83;;;;;;;;;;5042633;28;20620;-76
2022/05/23 05:55:40;;;;;;;10.90;4.70;;;;;;;;;;5041141;28;20260;-76
2022/05/23 05:58:07;;;;;;;10.47;4.77;;;;;;;;;;5044242;28;20285;-76
2022/05/23 06:00:35;;;;;;;6.93;4.47;;;;;;;;;;5042696;28;20208;-77
2022/05/23 06:03:02;;;;;;;14.10;4.73;;;;;;;;;;5043412;28;20213;-75
2022/05/23 06:05:29;;;;;;;7.63;4.40;;;;;;;;;;5043313;28;20211;-76
2022/05/23 06:13:38;;;;;;;9.03;4.17;;;;;;;;;;5001180;28;20275;-76
2022/05/23 06:16:06;;;;;;;8.30;4.13;;;;;;;;;;5035876;28;20673;-76
2022/05/23 06:18:33;;;;;;;10.63;4.47;;;;;;;;;;5046477;28;20670;-76
2022/05/23 06:21:00;;;;;;;14.10;4.40;;;;;;;;;;5045647;28;20334;-76
2022/05/23 06:23:29;;;;;;;7.17;4.10;;;;;;;;;;5044773;28;20200;-75
2022/05/23 06:25:56;;;;;;;9.10;4.03;;;;;;;;;;5046927;28;20234;-76
2022/05/23 06:28:23;;;;;;;9.80;4.20;;;;;;;;;;5046250;28;20575;-76
2022/05/23 06:30:51;;;;;;;7.53;4.87;;;;;;;;;;5047248;28;20231;-76
2022/05/23 06:33:18;;;;;;;9.57;5.37;;;;;;;;;;5047821;28;20728;-76
2022/05/23 06:35:45;;;;;;;9.90;4.37;;;;;;;;;;5045811;28;20203;-76
2022/05/23 06:38:12;;;;;;;8.47;4.03;;;;;;;;;;5045544;28;20587;-76
2022/05/23 06:40:41;;;;;;;10.73;4.67;;;;;;;;;;5045345;28;20712;-76
2022/05/23 06:43:08;;;;;;;8.77;4.27;;;;;;;;;;5046073;28;20290;-76
2022/05/23 06:45:36;;;;;;;9.43;4.40;;;;;;;;;;5049100;28;20199;-76
2022/05/23 06:48:03;;;;;;;10.43;5.10;;;;;;;;;;5045266;28;20207;-77
2022/05/23 06:50:30;;;;;;;10.07;4.60;;;;;;;;;;5043056;28;20224;-76
2022/05/23 06:52:58;;;;;;;11.80;4.77;;;;;;;;;;5045369;28;20206;-76
2022/05/23 06:55:25;;;;;;;7.83;4.57;;;;;;;;;;5044596;28;20207;-76
2022/05/23 06:57:54;;;;;;;8.67;4.57;;;;;;;;;;5045493;28;20209;-76
2022/05/23 07:00:21;;;;;;;9.70;4.33;;;;;;;;;;5046569;28;20194;-76
2022/05/23 07:02:49;;;;;;;8.50;4.57;;;;;;;;;;5044325;28;20231;-76
2022/05/23 07:13:32;;;;;;;10.13;4.87;;;;;;;;;;5046515;28;20249;-76
2022/05/23 07:15:59;;;;;;;12.13;4.50;;;;;;;;;;5043528;28;20233;-76
2022/05/23 07:18:29;;;;;;;10.73;4.07;;;;;;;;;;5043801;28;20203;-76
2022/05/23 07:20:57;;;;;;;6.17;3.50;;;;;;;;;;5047259;28;20223;-76
2022/05/23 07:23:24;;;;;;;12.67;4.77;;;;;;;;;;5044823;28;20306;-76
2022/05/23 07:25:51;;;;;;;7.93;4.10;;;;;;;;;;5046437;28;20207;-76
2022/05/23 07:28:18;;;;;;;7.37;4.17;;;;;;;;;;5050419;28;20303;-76
2022/05/23 07:30:47;;;;;;;8.30;3.90;;;;;;;;;;5041492;28;20314;-76
2022/05/23 07:33:15;;;;;;;9.20;4.10;;;;;;;;;;5046050;28;20772;-76
2022/05/23 07:35:42;;;;;;;8.23;3.50;;;;;;;;;;5043699;28;20214;-76
2022/05/23 07:38:09;;;;;;;9.30;4.07;;;;;;;;;;5048682;28;20211;-76
2022/05/23 07:40:37;;;;;;;9.93;3.73;;;;;;;;;;5044796;28;20668;-76
2022/05/23 07:43:04;;;;;;;4.93;3.33;;;;;;;;;;5043842;28;20242;-76
2022/05/23 07:45:31;;;;;;;12.00;3.57;;;;;;;;;;5044463;28;20209;-76
2022/05/23 07:47:59;;;;;;;11.00;3.33;;;;;;;;;;5042755;28;20254;-76
2022/05/23 07:50:27;;;;;;;11.60;4.33;;;;;;;;;;5044230;28;20300;-76
2022/05/23 08:01:10;;;;;;;7.63;3.70;;;;;;;;;;5044845;28;20237;-76
2022/05/23 08:03:40;;;;;;;6.13;3.77;;;;;;;;;;5045126;28;20214;-76
2022/05/23 08:06:09;;;;;;;11.60;4.37;;;;;;;;;;5041994;28;20688;-76
2022/05/23 08:08:36;;;;;;;14.37;4.10;;;;;;;;;;5045783;28;20226;-76
2022/05/23 08:11:08;;;;;;;8.47;3.80;;;;;;;;;;5044972;28;20231;-76
2022/05/23 08:13:35;;;;;;;7.47;4.30;;;;;;;;;;5044935;28;20207;-76
2022/05/23 08:16:02;;;;;;;10.30;4.23;;;;;;;;;;5043825;28;20673;-76
2022/05/23 08:18:29;;;;;;;9.83;4.43;;;;;;;;;;5045461;28;20213;-76
2022/05/23 08:20:58;;;;;;;10.43;4.37;;;;;;;;;;5040057;28;20219;-76
2022/05/23 08:23:25;;;;;;;10.20;4.40;;;;;;;;;;5045268;28;20207;-76
2022/05/23 08:25:52;;;;;;;7.83;4.10;;;;;;;;;;5041485;28;20249;-76
2022/05/23 08:28:20;;;;;;;6.73;4.07;;;;;;;;;;5045309;28;20209;-76
2022/05/23 08:30:47;;;;;;;9.00;4.40;;;;;;;;;;5045979;28;20237;-76
2022/05/23 08:33:14;;;;;;;6.20;4.07;;;;;;;;;;5041030;28;20249;-76
2022/05/23 08:35:42;;;;;;;10.27;4.40;;;;;;;;;;5043764;28;20282;-76
2022/05/23 08:38:10;;;;;;;8.20;4.10;;;;;;;;;;5044082;28;20290;-76
2022/05/23 08:40:45;;;;;;;9.77;4.27;;;;;;;;;;5041659;28;20207;-76
2022/05/23 08:43:13;;;;;;;7.97;3.67;;;;;;;;;;5042302;28;20726;-76
2022/05/23 08:45:42;;;;;;;7.60;3.83;;;;;;;;;;5041807;28;21553;-76
2022/05/23 08:48:12;;;;;;;7.37;3.97;;;;;;;;;;5043904;28;20750;-76
2022/05/23 08:50:44;;;;;;;13.50;4.17;;;;;;;;;;5042562;28;20223;-76
2022/05/23 08:53:15;;;;;;;11.57;3.90;;;;;;;;;;5041994;28;20207;-76
2022/05/23 08:55:46;;;;;;;7.03;4.23;;;;;;;;;;5042412;28;20206;-76
2022/05/23 08:58:14;;;;;;;8.60;4.03;;;;;;;;;;5044453;28;20682;-76
2022/05/23 09:00:43;;;;;;;10.30;4.33;;;;;;;;;;5043586;28;20294;-76
2022/05/23 09:03:12;;;;;;;8.63;4.20;;;;;;;;;;5044837;28;20298;-76
2022/05/23 09:05:42;;;;;;;10.33;4.00;;;;;;;;;;5042508;28;20253;-76
2022/05/23 09:08:11;;;;;;;6.53;3.90;;;;;;;;;;5041064;28;20470;-76
2022/05/23 09:10:42;;;;;;;7.93;3.90;;;;;;;;;;5039628;28;20306;-76
2022/05/23 09:13:10;;;;;;;7.57;3.97;;;;;;;;;;5045566;28;20562;-76
2022/05/23 09:15:37;;;;;;;7.93;3.70;;;;;;;;;;5042773;28;20776;-76
2022/05/23 09:18:06;;;;;;;7.57;4.20;;;;;;;;;;5042349;28;20215;-76
2022/05/23 09:20:36;;;;;;;9.30;3.93;;;;;;;;;;5042422;28;20581;-76
2022/05/23 09:23:05;;;;;;;7.83;3.87;;;;;;;;;;5041081;28;20291;-76
2022/05/23 09:25:33;;;;;;;8.23;3.70;;;;;;;;;;5043132;28;20293;-76
2022/05/23 09:28:09;;;;;;;10.77;3.50;;;;;;;;;;5046062;28;20410;-76
2022/05/23 09:30:37;;;;;;;7.73;4.10;;;;;;;;;;5044743;28;20226;-76
2022/05/23 09:33:11;;;;;;;8.00;3.50;;;;;;;;;;5043742;28;20210;-76
2022/05/23 09:35:49;;;;;;;11.37;3.90;;;;;;;;;;5041151;28;20260;-76
2022/05/23 09:38:18;;;;;;;6.40;3.33;;;;;;;;;;5040879;28;20209;-76
2022/05/23 09:40:45;;;;;;;7.47;3.93;;;;;;;;;;5040759;28;20286;-76
2022/05/23 09:49:08;;;;;;;12.60;3.57;;;;;;;;;;5045408;28;20222;-76
2022/05/23 09:51:48;;;;;;;8.70;3.30;;;;;;;;;;5045401;28;20245;-76
2022/05/23 09:54:18;;;;;;;6.70;3.43;;;;;;;;;;5049162;28;20773;-75
2022/05/23 09:56:45;;;;;;;7.20;3.60;;;;;;;;;;5046804;28;20252;-75
2022/05/23 09:59:22;;;;;;;7.93;3.60;;;;;;;;;;5047054;28;20584;-76
2022/05/23 10:01:50;;;;;;;9.67;3.93;;;;;;;;;;5047876;28;20313;-76
2022/05/23 10:04:18;;;;;;;8.10;3.70;;;;;;;;;;5047243;28;20210;-76
2022/05/23 10:06:48;;;;;;;7.13;3.70;;;;;;;;;;5048035;28;20289;-77
2022/05/23 10:09:24;;;;;;;7.23;3.50;;;;;;;;;;5047162;28;20204;-76
2022/05/23 10:11:54;;;;;;;12.67;4.20;;;;;;;;;;5045355;28;20777;-76
2022/05/23 10:14:24;;;;;;;6.77;3.77;;;;;;;;;;5052628;28;20229;-76
2022/05/23 10:16:53;;;;;;;11.57;3.97;;;;;;;;;;5047615;28;20515;-76
2022/05/23 10:19:31;;;;;;;6.43;3.33;;;;;;;;;;5051513;28;20257;-76
2022/05/23 10:22:10;;;;;;;9.83;3.60;;;;;;;;;;5047781;28;20219;-76
2022/05/23 10:24:37;;;;;;;7.87;3.70;;;;;;;;;;5046597;28;20210;-76
2022/05/23 10:27:07;;;;;;;11.83;4.03;;;;;;;;;;5048010;28;20207;-76
2022/05/23 10:29:41;;;;;;;9.87;3.70;;;;;;;;;;5050002;28;20199;-76
2022/05/23 10:32:09;;;;;;;11.17;3.63;;;;;;;;;;5051243;28;20379;-76
2022/05/23 10:34:39;;;;;;;10.37;3.47;;;;;;;;;;5050850;28;20199;-76
2022/05/23 10:37:08;;;;;;;7.53;3.40;;;;;;;;;;5049303;28;20199;-76
2022/05/23 10:42:27;;;;;;;6.70;3.50;;;;;;;;;;5047670;28;20230;-76
2022/05/23 10:45:08;;;;;;;9.17;3.33;;;;;;;;;;5044579;28;20234;-76
2022/05/23 10:47:43;;;;;;;10.73;3.50;;;;;;;;;;5047627;28;20248;-76
2022/05/23 10:50:15;;;;;;;10.07;3.60;;;;;;;;;;5047848;28;20734;-76
2022/05/23 10:52:47;;;;;;;9.17;3.40;;;;;;;;;;5046060;28;20416;-76
2022/05/23 10:55:17;;;;;;;6.97;3.50;;;;;;;;;;5046265;28;20634;-76
2022/05/23 10:57:59;;;;;;;10.07;3.30;;;;;;;;;;5047899;28;20646;-75
2022/05/23 11:00:33;;;;;;;5.40;3.37;;;;;;;;;;5045169;28;20203;-76
2022/05/23 11:03:04;;;;;;;6.43;3.37;;;;;;;;;;5047762;28;20215;-76
2022/05/23 11:05:33;;;;;;;5.77;3.17;;;;;;;;;;5047811;28;20211;-75
2022/05/23 11:08:07;;;;;;;7.73;2.87;;;;;;;;;;5048209;28;20214;-76
2022/05/23 11:10:40;;;;;;;5.40;3.20;;;;;;;;;;5048093;28;20224;-75
2022/05/23 11:13:14;;;;;;;9.03;3.40;;;;;;;;;;5044055;28;20204;-76
2022/05/23 11:15:49;;;;;;;10.20;3.13;;;;;;;;;;5048915;28;20209;-76
2022/05/23 11:18:23;;;;;;;8.93;3.33;;;;;;;;;;5046070;28;20231;-76
2022/05/23 11:20:51;;;;;;;6.93;3.50;;;;;;;;;;5046815;28;20542;-75
2022/05/23 11:23:22;;;;;;;6.20;3.47;;;;;;;;;;5047791;28;20258;-76
2022/05/23 11:25:53;;;;;;;5.93;3.00;;;;;;;;;;5042022;28;20249;-76
2022/05/23 11:34:00;;;;;;;5.80;3.07;;;;;;;;;;5048371;28;20198;-76
2022/05/23 11:36:44;;;;;;;6.33;3.20;;;;;;;;;;5039596;28;20491;-77
2022/05/23 11:39:26;;;;;;;5.57;3.43;;;;;;;;;;5046012;28;20200;-75
2022/05/23 11:41:54;;;;;;;9.07;3.20;;;;;;;;;;5042098;28;20223;-74
2022/05/23 11:44:39;;;;;;;7.67;3.53;;;;;;;;;;5044566;28;20255;-74
2022/05/23 11:47:16;;;;;;;9.57;3.80;;;;;;;;;;5044852;28;20234;-75
2022/05/23 11:49:44;;;;;;;7.13;3.63;;;;;;;;;;5043903;28;20235;-74
2022/05/23 11:52:19;;;;;;;7.57;4.00;;;;;;;;;;5045172;28;20578;-74
2022/05/23 11:54:46;;;;;;;5.93;3.70;;;;;;;;;;5046260;28;20268;-74
2022/05/23 11:57:18;;;;;;;11.10;4.10;;;;;;;;;;5043404;28;20207;-75
2022/05/23 12:00:08;;;;;;;9.87;4.20;;;;;;;;;;5047720;28;20214;-74
2022/05/23 12:02:40;;;;;;;8.00;3.77;;;;;;;;;;5043598;28;20672;-75
2022/05/23 12:05:13;;;;;;;6.77;3.80;;;;;;;;;;5039492;28;20253;-74
2022/05/23 12:08:01;;;;;;;8.23;4.07;;;;;;;;;;5038198;28;20234;-75
2022/05/23 12:10:43;;;;;;;6.67;3.70;;;;;;;;;;5044840;28;20306;-74
2022/05/23 12:13:29;;;;;;;12.63;3.63;;;;;;;;;;5042725;28;20296;-75
2022/05/23 12:15:56;;;;;;;6.80;3.67;;;;;;;;;;5045532;28;20204;-75
2022/05/23 12:18:36;;;;;;;5.63;3.60;;;;;;;;;;5042062;28;20294;-74
2022/05/23 12:21:06;;;;;;;11.60;3.60;;;;;;;;;;5044069;28;20667;-75
2022/05/23 12:23:35;;;;;;;12.17;4.00;;;;;;;;;;5041802;28;20574;-75
2022/05/23 12:26:22;;;;;;;11.23;3.90;;;;;;;;;;5045600;28;20315;-75
2022/05/23 12:28:52;;;;;;;6.87;3.37;;;;;;;;;;5043007;28;20199;-75
2022/05/23 12:31:20;;;;;;;8.40;3.40;;;;;;;;;;5043758;28;20317;-75
2022/05/23 12:33:53;;;;;;;8.23;3.70;;;;;;;;;;5044312;28;20205;-74
2022/05/23 12:36:22;;;;;;;9.67;3.73;;;;;;;;;;5042476;28;20207;-74
2022/05/23 12:39:07;;;;;;;8.00;3.50;;;;;;;;;;5043288;28;20231;-74
2022/05/23 12:41:44;;;;;;;7.37;3.67;;;;;;;;;;5045092;28;20738;-74
2022/05/23 12:44:35;;;;;;;9.03;4.10;;;;;;;;;;5042989;28;20211;-74
2022/05/23 12:47:05;;;;;;;6.30;3.50;;;;;;;;;;5042120;28;20652;-74
2022/05/23 12:49:43;;;;;;;7.27;3.83;;;;;;;;;;5041838;28;20200;-74
2022/05/23 12:52:20;;;;;;;6.87;3.70;;;;;;;;;;5041261;28;20321;-75
2022/05/23 12:54:57;;;;;;;9.13;3.47;;;;;;;;;;5044290;28;20203;-73
2022/05/23 12:57:42;;;;;;;7.27;3.60;;;;;;;;;;5041492;28;20313;-73
2022/05/23 13:00:14;;;;;;;10.90;3.30;;;;;;;;;;5041948;28;20281;-75
2022/05/23 13:02:45;;;;;;;11.97;3.80;;;;;;;;;;5038411;28;20727;-73
2022/05/23 13:05:17;;;;;;;8.40;3.23;;;;;;;;;;5043349;28;20210;-73
2022/05/23 13:07:48;;;;;;;10.10;3.50;;;;;;;;;;5043268;28;20214;-73
2022/05/23 13:10:20;;;;;;;9.33;3.63;;;;;;;;;;5042662;28;20207;-73
2022/05/23 13:12:53;;;;;;;5.87;3.17;;;;;;;;;;5040877;28;20781;-73
2022/05/23 13:15:25;;;;;;;9.33;3.53;;;;;;;;;;5041679;28;20299;-73
2022/05/23 13:17:52;;;;;;;6.40;3.63;;;;;;;;;;5040396;28;20575;-73
2022/05/23 13:23:12;;;;;;;8.27;3.20;;;;;;;;;;5042838;28;20284;-73
2022/05/23 13:25:39;;;;;;;10.57;3.90;;;;;;;;;;5044147;28;20290;-73
2022/05/23 13:28:09;;;;;;;5.60;3.30;;;;;;;;;;5044638;28;20213;-73
2022/05/23 13:30:37;;;;;;;6.63;2.93;;;;;;;;;;5043464;28;20674;-73
2022/05/23 13:33:08;;;;;;;7.40;3.33;;;;;;;;;;5044584;28;20317;-74
2022/05/23 13:35:37;;;;;;;8.10;3.20;;;;;;;;;;5041287;28;20619;-72
2022/05/23 13:38:18;;;;;;;8.07;3.60;;;;;;;;;;5039042;28;20712;-73
2022/05/23 13:40:47;;;;;;;6.43;2.90;;;;;;;;;;5041018;28;20303;-73
2022/05/23 13:43:15;;;;;;;7.73;3.23;;;;;;;;;;5040496;28;20196;-73
2022/05/23 13:45:43;;;;;;;7.47;3.30;;;;;;;;;;5039985;28;20211;-73
2022/05/23 13:48:14;;;;;;;5.73;3.00;;;;;;;;;;5040428;28;20310;-73
2022/05/23 13:50:45;;;;;;;10.90;3.10;;;;;;;;;;5040159;28;20208;-73
2022/05/23 13:53:15;;;;;;;5.27;2.67;;;;;;;;;;5039896;28;20326;-73
2022/05/23 13:55:43;;;;;;;9.20;2.80;;;;;;;;;;5035929;28;20302;-73
2022/05/23 13:58:13;;;;;;;8.63;3.20;;;;;;;;;;5040496;28;20216;-73
2022/05/23 14:00:42;;;;;;;9.13;2.70;;;;;;;;;;5037145;28;20291;-72
2022/05/23 14:03:11;;;;;;;7.03;2.50;;;;;;;;;;5036818;28;20204;-73
2022/05/23 14:05:43;;;;;;;6.37;2.83;;;;;;;;;;5039840;28;20284;-73
2022/05/23 14:08:11;;;;;;;6.10;2.60;;;;;;;;;;5038645;28;20204;-73
2022/05/23 14:10:40;;;;;;;4.93;2.70;;;;;;;;;;5038921;28;20708;-73
2022/05/23 14:13:08;;;;;;;8.33;2.90;;;;;;;;;;5038907;28;20531;-73
2022/05/23 14:15:36;;;;;;;8.93;3.23;;;;;;;;;;5038336;28;20293;-73
2022/05/23 14:18:04;;;;;;;9.73;2.83;;;;;;;;;;5040217;28;20242;-74
2022/05/23 14:20:34;;;;;;;9.10;3.20;;;;;;;;;;5041181;28;20207;-74
2022/05/23 14:23:02;;;;;;;6.23;2.80;;;;;;;;;;5040471;28;20198;-74
2022/05/23 14:25:34;;;;;;;10.50;2.87;;;;;;;;;;5040618;28;20209;-74
2022/05/23 14:28:08;;;;;;;8.70;3.07;;;;;;;;;;5041613;28;20294;-74
2022/05/23 14:30:37;;;;;;;9.33;3.23;;;;;;;;;;5042158;28;20217;-74
2022/05/23 14:33:07;;;;;;;7.97;2.73;;;;;;;;;;5043989;28;20226;-74
2022/05/23 14:35:37;;;;;;;5.57;2.47;;;;;;;;;;5042173;28;20610;-74
2022/05/23 14:38:04;;;;;;;7.93;3.07;;;;;;;;;;5043988;28;20261;-74
2022/05/23 14:40:37;;;;;;;5.93;2.67;;;;;;;;;;5046704;28;20291;-74
2022/05/23 14:43:07;;;;;;;9.83;2.90;;;;;;;;;;5045904;28;20213;-74
2022/05/23 14:45:35;;;;;;;10.53;3.00;;;;;;;;;;5043748;28;20688;-74
2022/05/23 14:48:15;;;;;;;5.10;2.63;;;;;;;;;;5045515;28;20667;-75
2022/05/23 14:50:45;;;;;;;9.40;3.10;;;;;;;;;;5045607;28;20224;-74
2022/05/23 14:56:16;;;;;;;5.43;2.90;;;;;;;;;;5042493;28;20728;-74
2022/05/23 15:01:29;;;;;;;10.37;3.43;;;;;;;;;;5046368;28;20230;-74
2022/05/23 15:03:57;;;;;;;17.77;3.93;;;;;;;;;;5036285;28;20351;-74
2022/05/23 15:06:24;;;;;;;5.53;2.93;;;;;;;;;;5042310;28;20208;-74
2022/05/23 15:08:51;;;;;;;6.60;3.07;;;;;;;;;;5045936;28;20210;-74
2022/05/23 15:11:22;;;;;;;7.03;3.03;;;;;;;;;;5043334;28;20246;-74
2022/05/23 15:13:49;;;;;;;11.10;3.40;;;;;;;;;;5045228;28;20201;-74
2022/05/23 15:16:19;;;;;;;7.37;2.97;;;;;;;;;;5045103;28;20653;-74
2022/05/23 15:18:46;;;;;;;8.40;3.60;;;;;;;;;;5043147;28;20203;-74
2022/05/23 15:21:13;;;;;;;8.20;3.50;;;;;;;;;;5042415;28;20226;-74
2022/05/23 15:23:40;;;;;;;9.53;3.10;;;;;;;;;;5044590;28;20286;-73
2022/05/23 15:26:09;;;;;;;6.47;3.33;;;;;;;;;;5046132;28;20681;-73
2022/05/23 15:28:38;;;;;;;9.10;3.13;;;;;;;;;;5043472;28;20199;-73
2022/05/23 15:31:06;;;;;;;8.80;3.17;;;;;;;;;;5042206;28;20235;-73
2022/05/23 15:33:34;;;;;;;5.77;3.33;;;;;;;;;;5043039;28;20251;-75
2022/05/23 15:36:01;;;;;;;11.53;3.63;;;;;;;;;;5042294;28;20203;-73
2022/05/23 15:38:30;;;;;;;9.23;3.77;;;;;;;;;;5043213;28;20211;-75
2022/05/23 15:40:57;;;;;;;8.67;3.63;;;;;;;;;;5046185;28;20250;-75
2022/05/23 15:43:24;;;;;;;5.73;3.40;;;;;;;;;;5044214;28;20200;-75
2022/05/23 15:45:53;;;;;;;9.87;3.40;;;;;;;;;;5044643;28;20302;-75
2022/05/23 15:48:21;;;;;;;7.90;3.60;;;;;;;;;;5045627;28;20207;-75
2022/05/23 15:50:48;;;;;;;7.97;4.07;;;;;;;;;;5043692;28;20530;-73
2022/05/23 15:53:16;;;;;;;9.10;4.00;;;;;;;;;;5044253;28;20322;-74
2022/05/23 15:55:44;;;;;;;12.37;3.63;;;;;;;;;;5044782;28;20641;-75